createdAt,value
2019-05-02T00:01:13.982Z,9.88
2019-05-02T00:03:43.872Z,9.83
2019-05-02T00:06:14.098Z,9.78
2019-05-02T00:08:43.896Z,9.80
2019-05-02T00:11:13.579Z,9.82
2019-05-02T00:13:43.529Z,9.70
2019-05-02T00:16:14.128Z,9.71
2019-05-02T00:18:44.769Z,9.77
2019-05-02T00:21:14.272Z,9.69
2019-05-02T00:23:43.909Z,9.70
2019-05-02T00:26:13.477Z,9.77
2019-05-02T00:28:47.809Z,9.65
2019-05-02T00:31:14.628Z,9.60
2019-05-02T00:33:44.546Z,9.42
2019-05-02T00:36:14.452Z,9.45
2019-05-02T00:38:44.195Z,9.44
2019-05-02T00:41:14.012Z,9.42
2019-05-02T00:43:43.550Z,9.40
2019-05-02T00:46:13.536Z,9.37
2019-05-02T00:48:54.191Z,9.33
2019-05-02T00:51:26.780Z,9.34
2019-05-02T00:53:56.331Z,9.30
2019-05-02T00:56:25.778Z,9.24
2019-05-02T00:58:55.346Z,9.21
2019-05-02T01:01:30.908Z,9.17
2019-05-02T01:04:10.850Z,9.12
2019-05-02T01:06:40.680Z,9.04
2019-05-02T01:09:11.156Z,8.98
2019-05-02T01:11:40.929Z,9.01
2019-05-02T01:14:10.236Z,9.00
2019-05-02T01:16:39.561Z,8.92
2019-05-02T01:19:12.199Z,8.93
2019-05-02T01:21:40.131Z,8.86
2019-05-02T01:24:09.588Z,8.86
2019-05-02T01:26:40.776Z,8.80
2019-05-02T01:29:11.873Z,8.75
2019-05-02T01:31:55.801Z,8.75
2019-05-02T01:34:38.685Z,8.76
2019-05-02T01:37:20.369Z,8.81
2019-05-02T01:39:44.091Z,8.81
2019-05-02T01:42:13.418Z,8.82
2019-05-02T01:44:42.668Z,8.76
2019-05-02T01:47:12.571Z,8.69
2019-05-02T01:49:41.844Z,8.65
2019-05-02T01:52:11.191Z,8.63
2019-05-02T01:54:40.761Z,8.59
2019-05-02T01:57:11.467Z,8.53
2019-05-02T01:59:40.758Z,8.45
2019-05-02T02:02:10.191Z,8.44
2019-05-02T02:04:39.477Z,8.44
2019-05-02T02:07:08.848Z,8.32
2019-05-02T02:09:38.770Z,8.24
2019-05-02T02:12:11.287Z,8.18
2019-05-02T02:14:40.725Z,8.16
2019-05-02T02:17:15.588Z,8.13
2019-05-02T02:19:43.096Z,8.05
2019-05-02T02:22:19.971Z,8.04
2019-05-02T02:24:50.875Z,7.96
2019-05-02T02:27:24.542Z,7.93
2019-05-02T02:29:51.263Z,7.88
2019-05-02T02:32:27.127Z,7.82
2019-05-02T02:34:51.715Z,7.81
2019-05-02T02:37:21.182Z,7.77
2019-05-02T02:39:54.098Z,7.77
2019-05-02T02:42:25.000Z,7.75
2019-05-02T02:47:23.535Z,7.77
2019-05-02T02:49:55.945Z,7.76
2019-05-02T02:52:23.962Z,7.69
2019-05-02T02:54:53.630Z,7.67
2019-05-02T02:57:27.959Z,7.69
2019-05-02T03:00:06.752Z,7.68
2019-05-02T03:02:25.168Z,7.70
2019-05-02T03:04:54.394Z,7.76
2019-05-02T03:07:25.815Z,7.74
2019-05-02T03:09:59.709Z,7.77
2019-05-02T03:12:27.592Z,7.75
2019-05-02T03:14:58.692Z,7.64
2019-05-02T03:17:28.799Z,7.58
2019-05-02T03:20:01.558Z,7.54
2019-05-02T03:22:34.851Z,7.48
2019-05-02T03:25:00.728Z,7.43
2019-05-02T03:29:59.061Z,7.43
2019-05-02T03:32:34.667Z,7.47
2019-05-02T03:34:59.687Z,7.46
2019-05-02T03:37:28.988Z,7.46
2019-05-02T03:40:00.646Z,7.45
2019-05-02T03:42:29.269Z,7.51
2019-05-02T03:45:04.304Z,7.54
2019-05-02T03:47:29.640Z,7.57
2019-05-02T03:49:59.073Z,7.66
2019-05-02T03:52:28.734Z,7.71
2019-05-02T03:54:58.380Z,7.66
2019-05-02T03:57:33.588Z,7.70
2019-05-02T03:59:59.049Z,7.72
2019-05-02T04:02:28.840Z,7.72
2019-05-02T04:05:00.389Z,7.73
2019-05-02T04:07:39.795Z,7.76
2019-05-02T04:10:01.777Z,7.79
2019-05-02T04:12:32.937Z,7.76
2019-05-02T04:15:02.306Z,7.81
2019-05-02T04:17:35.400Z,7.83
2019-05-02T04:20:09.674Z,7.70
2019-05-02T04:22:43.000Z,7.63
2019-05-02T04:25:07.718Z,7.62
2019-05-02T04:27:37.292Z,7.57
2019-05-02T04:30:11.224Z,7.49
2019-05-02T04:32:42.740Z,7.46
2019-05-02T04:35:10.077Z,7.48
2019-05-02T04:37:41.193Z,7.54
2019-05-02T04:40:12.343Z,7.60
2019-05-02T04:42:41.549Z,7.61
2019-05-02T04:45:24.153Z,7.67
2019-05-02T04:47:42.579Z,7.76
2019-05-02T04:56:07.144Z,7.46
2019-05-02T05:28:58.391Z,7.96
2019-05-02T05:34:22.767Z,7.95
2019-05-02T05:36:50.426Z,8.02
2019-05-02T05:42:30.149Z,7.96
2019-05-02T05:45:03.791Z,7.89
2019-05-02T05:52:43.377Z,7.97
2019-05-02T05:55:20.599Z,8.14
2019-05-02T05:57:47.601Z,8.12
2019-05-02T06:00:22.979Z,8.12
2019-05-02T06:02:56.205Z,8.19
2019-05-02T06:05:24.242Z,8.24
2019-05-02T06:07:57.530Z,8.29
2019-05-02T06:10:46.929Z,8.49
2019-05-02T06:13:16.340Z,8.70
2019-05-02T06:15:46.238Z,8.76
2019-05-02T06:18:16.328Z,8.78
2019-05-02T06:20:45.614Z,8.99
2019-05-02T06:23:15.500Z,9.29
2019-05-02T06:25:45.308Z,9.38
2019-05-02T06:37:22.203Z,9.72
2019-05-02T06:51:57.591Z,10.47
2019-05-02T06:54:28.769Z,10.43
2019-05-02T06:57:13.007Z,10.45
2019-05-02T06:59:42.562Z,10.44
2019-05-02T07:02:12.261Z,10.62
2019-05-02T07:04:43.090Z,10.69
2019-05-02T07:07:14.441Z,10.80
2019-05-02T07:09:45.551Z,10.97
2019-05-02T08:07:38.358Z,13.18
2019-05-02T08:10:08.263Z,13.30
2019-05-02T08:12:38.280Z,13.32
2019-05-02T08:15:13.201Z,13.49
2019-05-02T08:17:41.629Z,13.67
2019-05-02T08:22:43.987Z,13.61
2019-05-02T08:25:12.853Z,13.68
2019-05-02T08:27:53.867Z,13.80
2019-05-02T08:30:24.859Z,13.81
2019-05-02T08:32:55.744Z,13.98
2019-05-02T08:38:37.208Z,14.43
2019-05-02T08:41:07.950Z,14.37
2019-05-02T08:43:40.102Z,14.42
2019-05-02T08:51:50.244Z,14.74
2019-05-02T08:57:29.951Z,14.90
2019-05-02T09:00:02.782Z,15.17
2019-05-02T09:14:03.866Z,16.44
2019-05-02T09:16:36.147Z,16.26
2019-05-02T09:22:25.643Z,16.84
2019-05-02T09:27:52.663Z,16.89
2019-05-02T09:30:42.531Z,17.05
2019-05-02T09:38:12.983Z,17.43
2019-05-02T09:51:17.334Z,17.53
2019-05-02T10:02:04.393Z,18.59
2019-05-02T10:04:34.252Z,18.61
2019-05-02T10:07:04.583Z,18.60
2019-05-02T10:15:42.138Z,17.79
2019-05-02T11:23:24.813Z,14.44
2019-05-02T11:26:04.779Z,14.56
2019-05-02T11:31:37.996Z,14.58
2019-05-02T11:39:53.495Z,14.84
2019-05-02T11:49:25.168Z,15.18
2019-05-02T11:57:54.544Z,15.00
2019-05-02T12:21:34.159Z,16.63
2019-05-02T12:31:47.183Z,16.62
2019-05-02T12:34:19.021Z,16.50
2019-05-02T12:36:48.890Z,16.50
2019-05-02T12:39:19.265Z,16.57
2019-05-02T13:57:05.116Z,15.06
2019-05-02T13:59:36.250Z,14.98
2019-05-02T14:10:44.742Z,15.30
2019-05-02T14:16:02.390Z,15.18
2019-05-02T14:18:33.629Z,15.22
2019-05-02T14:21:02.891Z,15.22
2019-05-02T14:23:32.207Z,15.35
2019-05-02T14:26:02.157Z,15.34
2019-05-02T14:28:36.086Z,15.37
2019-05-02T14:31:03.495Z,15.43
2019-05-02T14:33:35.257Z,15.06
2019-05-02T14:36:05.123Z,15.06
2019-05-02T14:41:12.450Z,14.91
2019-05-02T14:43:53.851Z,15.26
2019-05-02T14:46:29.022Z,15.94
2019-05-02T14:48:56.834Z,16.07
2019-05-02T14:51:27.899Z,15.88
2019-05-02T14:54:03.753Z,15.89
2019-05-02T14:59:02.816Z,15.81
2019-05-02T15:04:22.643Z,15.97
2019-05-02T15:06:52.649Z,16.39
2019-05-02T15:09:26.837Z,16.53
2019-05-02T15:14:30.140Z,16.61
2019-05-02T15:17:00.034Z,16.39
2019-05-02T15:19:30.058Z,16.10
2019-05-02T15:21:59.520Z,16.09
2019-05-02T15:26:58.015Z,16.13
2019-05-02T15:29:27.578Z,16.22
2019-05-02T15:32:07.225Z,16.30
2019-05-02T15:34:46.312Z,16.20
2019-05-02T15:44:37.384Z,16.15
2019-05-02T15:47:07.154Z,16.12
2019-05-02T15:49:41.695Z,16.14
2019-05-02T15:52:12.469Z,15.92
2019-05-02T15:54:42.595Z,15.74
2019-05-02T15:57:12.934Z,15.93
2019-05-02T15:59:46.124Z,16.09
2019-05-02T16:02:22.896Z,16.40
2019-05-02T16:04:49.656Z,16.36
2019-05-02T16:07:19.114Z,16.24
2019-05-02T16:09:51.518Z,16.17
2019-05-02T16:15:18.112Z,16.23
2019-05-02T16:17:42.222Z,16.24
2019-05-02T16:20:14.102Z,16.36
2019-05-02T16:22:49.249Z,16.23
2019-05-02T16:25:14.605Z,16.24
2019-05-02T16:27:45.664Z,16.58
2019-05-02T16:30:17.516Z,16.71
2019-05-02T16:32:48.365Z,16.65
2019-05-02T16:35:19.403Z,16.44
2019-05-02T16:37:52.334Z,16.63
2019-05-02T16:40:22.150Z,16.63
2019-05-02T16:42:51.872Z,16.33
2019-05-02T16:45:22.211Z,16.64
2019-05-02T16:47:58.675Z,16.63
2019-05-02T16:50:23.010Z,16.52
2019-05-02T16:52:53.088Z,16.17
2019-05-02T16:55:26.533Z,16.11
2019-05-02T16:57:56.864Z,16.11
2019-05-02T17:00:25.712Z,15.86
2019-05-02T17:02:54.912Z,15.75
2019-05-02T17:05:24.247Z,15.51
2019-05-02T17:08:10.574Z,15.45
2019-05-02T17:10:39.712Z,15.36
2019-05-02T17:13:09.099Z,15.20
2019-05-02T17:15:38.566Z,15.22
2019-05-02T17:18:18.070Z,15.15
2019-05-02T17:20:38.977Z,14.98
2019-05-02T17:23:08.361Z,14.92
2019-05-02T17:25:37.672Z,14.78
2019-05-02T17:28:10.372Z,14.72
2019-05-02T17:30:45.104Z,14.61
2019-05-02T17:33:17.555Z,14.52
2019-05-02T17:35:53.614Z,14.35
2019-05-02T17:38:27.668Z,14.30
2019-05-02T17:40:54.353Z,14.17
2019-05-02T17:43:23.183Z,14.14
2019-05-02T17:45:52.783Z,13.96
2019-05-02T17:48:22.140Z,13.92
2019-05-02T17:50:59.548Z,13.82
2019-05-02T17:53:33.607Z,13.72
2019-05-02T17:56:01.883Z,13.60
2019-05-02T17:58:33.838Z,13.56
2019-05-02T18:01:04.418Z,13.57
2019-05-02T18:03:35.349Z,13.45
2019-05-02T18:06:07.564Z,13.51
2019-05-02T18:08:36.177Z,13.53
2019-05-02T18:11:05.659Z,13.52
2019-05-02T18:13:35.521Z,13.49
2019-05-02T18:16:07.845Z,13.37
2019-05-02T18:18:37.453Z,13.24
2019-05-02T18:21:08.376Z,13.07
2019-05-02T18:23:37.794Z,13.12
2019-05-02T18:26:07.105Z,13.02
2019-05-02T18:28:46.147Z,12.93
2019-05-02T18:31:07.903Z,12.84
2019-05-02T18:33:41.320Z,12.82
2019-05-02T18:36:08.713Z,12.72
2019-05-02T18:38:38.058Z,12.70
2019-05-02T18:41:08.007Z,12.65
2019-05-02T18:43:41.483Z,12.60
2019-05-02T18:46:09.034Z,12.51
2019-05-02T18:48:42.149Z,12.47
2019-05-02T18:51:09.440Z,12.44
2019-05-02T18:53:38.800Z,12.41
2019-05-02T18:56:08.192Z,12.42
2019-05-02T18:58:41.337Z,12.38
2019-05-02T19:01:14.070Z,12.31
2019-05-02T19:03:39.922Z,12.28
2019-05-02T19:06:11.566Z,12.23
2019-05-02T19:08:46.559Z,12.14
2019-05-02T19:11:13.175Z,12.08
2019-05-02T19:13:44.189Z,12.01
2019-05-02T19:16:13.908Z,11.99
2019-05-02T19:18:43.441Z,11.96
2019-05-02T19:21:12.919Z,11.92
2019-05-02T19:23:42.631Z,11.89
2019-05-02T19:26:14.670Z,11.86
2019-05-02T19:28:45.007Z,11.80
2019-05-02T19:31:17.366Z,11.82
2019-05-02T19:33:46.999Z,11.77
2019-05-02T19:36:27.451Z,11.74
2019-05-02T19:38:52.575Z,11.73
2019-05-02T19:41:22.406Z,11.68
2019-05-02T19:43:56.326Z,11.64
2019-05-02T19:49:22.408Z,11.62
2019-05-02T19:51:58.306Z,11.63
2019-05-02T19:54:33.554Z,11.61
2019-05-02T19:59:57.126Z,11.72
2019-05-02T20:02:29.084Z,11.72
2019-05-02T20:04:57.861Z,11.73
2019-05-02T20:07:27.195Z,11.75
2019-05-02T20:09:56.898Z,11.77
2019-05-02T20:12:26.267Z,11.79
2019-05-02T20:14:56.174Z,11.84
2019-05-02T20:17:25.571Z,11.90
2019-05-02T20:19:57.901Z,11.94
2019-05-02T20:22:28.077Z,11.89
2019-05-02T20:25:03.074Z,11.96
2019-05-02T20:29:58.651Z,12.05
2019-05-02T20:32:28.387Z,12.04
2019-05-02T20:34:58.117Z,12.03
2019-05-02T20:37:27.584Z,12.03
2019-05-02T20:39:57.365Z,12.02
2019-05-02T20:42:26.806Z,12.02
2019-05-02T20:44:56.168Z,12.05
2019-05-02T20:47:25.903Z,12.05
2019-05-02T20:49:55.416Z,11.97
2019-05-02T20:52:25.405Z,11.98
2019-05-02T20:54:55.029Z,12.07
2019-05-02T20:57:24.464Z,12.01
2019-05-02T21:02:22.985Z,11.94
2019-05-02T21:04:52.655Z,11.98
2019-05-02T21:07:29.430Z,12.04
2019-05-02T21:10:01.938Z,12.07
2019-05-02T21:12:31.344Z,12.02
2019-05-02T21:15:01.745Z,12.03
2019-05-02T21:17:32.736Z,11.97
2019-05-02T21:20:02.385Z,11.96
2019-05-02T21:22:32.754Z,11.86
2019-05-02T21:25:02.544Z,11.87
2019-05-02T21:27:32.498Z,11.88
2019-05-02T21:30:02.494Z,11.87
2019-05-02T21:32:32.186Z,11.84
2019-05-02T21:35:02.751Z,11.87
2019-05-02T21:40:02.743Z,11.79
2019-05-02T21:42:32.346Z,11.84
2019-05-02T21:45:02.406Z,11.75
2019-05-02T21:47:32.382Z,11.72
2019-05-02T21:50:03.448Z,11.63
2019-05-02T21:52:43.369Z,11.52
2019-05-02T21:55:29.145Z,11.56
2019-05-02T21:57:59.356Z,11.56
2019-05-02T22:00:33.437Z,11.53
2019-05-02T22:03:02.797Z,11.53
2019-05-02T22:05:32.087Z,11.52
2019-05-02T22:08:02.964Z,11.55
2019-05-02T22:10:32.519Z,11.62
2019-05-02T22:13:02.536Z,11.63
2019-05-02T22:15:32.526Z,11.52
2019-05-02T22:18:02.287Z,11.57
2019-05-02T22:20:32.063Z,11.55
2019-05-02T22:23:02.400Z,11.50
2019-05-02T22:25:32.710Z,11.55
2019-05-02T22:28:02.098Z,11.53
2019-05-02T22:30:32.296Z,11.58
2019-05-02T22:33:02.793Z,11.55
2019-05-02T22:35:31.965Z,11.52
2019-05-02T22:38:03.200Z,11.49
2019-05-02T22:40:32.750Z,11.47
2019-05-02T22:43:04.552Z,11.42
2019-05-02T22:45:33.752Z,11.48
2019-05-02T22:48:02.978Z,11.45
2019-05-02T22:50:32.580Z,11.44
2019-05-02T22:53:02.074Z,11.42
2019-05-02T22:55:32.004Z,11.51
2019-05-02T22:58:02.330Z,11.47
2019-05-02T23:00:33.395Z,11.42
2019-05-02T23:03:02.963Z,11.39
2019-05-02T23:05:34.386Z,11.40
2019-05-02T23:08:03.851Z,11.33
2019-05-02T23:10:33.337Z,11.38
2019-05-02T23:13:02.739Z,11.28
2019-05-02T23:15:32.241Z,11.19
2019-05-02T23:18:01.986Z,11.21
2019-05-02T23:20:32.885Z,11.25
2019-05-02T23:23:02.330Z,11.24
2019-05-02T23:25:51.944Z,11.21
2019-05-02T23:28:24.345Z,11.16
2019-05-02T23:30:53.779Z,11.16
2019-05-02T23:33:25.035Z,11.07
2019-05-02T23:35:54.487Z,11.09
2019-05-02T23:38:24.069Z,11.10
2019-05-02T23:40:53.715Z,11.05
2019-05-02T23:43:23.537Z,11.02
2019-05-02T23:45:53.531Z,10.96
2019-05-02T23:48:23.031Z,10.84
2019-05-02T23:50:52.806Z,10.84
2019-05-02T23:53:22.390Z,10.87
2019-05-02T23:55:51.752Z,10.84
2019-05-02T23:58:22.616Z,10.82
